ISR917 LLBG-HTKJ
Flight info
| Callsign | ISR917 |
|---|---|
| Flight time | N/A |
| Altitude | 33000 |
| Route | SALAM N134 OSAMA DCT EGLOT M449 TBK V54 WEJ T510 RBG B544 JDW L677 RIBAM G650 KONET M308 RUDOL UM308 NAK UA727 NV UT912 APDIK APDIK2A |
| Aircraft | A320/M-SDE2FGHIJ1LORVWY/SB1 |
Departure
| Time | 2026-05-05 11:58 |
|---|---|
| Airport | Ben Gurion International Airport (LLBG) |
Arrival
| Time | N/A |
|---|---|
| Airport | Kilimanjaro International Airport (HTKJ) |
| Time | Latitude | Longitude | Altitude | Speed | Heading |
|---|---|---|---|---|---|
| 2026-05-05 11:35 | 32.00186 | 34.87851 | 120 ft | 0 kts | 121° |
| 2026-05-05 11:49 | 32.00199 | 34.87827 | 119 ft | 4 kts | 122° |
| 2026-05-05 11:50 | 32.00212 | 34.87802 | 117 ft | 2 kts | 122° |
| 2026-05-05 11:50 | 32.00225 | 34.87780 | 118 ft | 4 kts | 142° |
| 2026-05-05 11:50 | 32.00246 | 34.87773 | 115 ft | 3 kts | 209° |
| 2026-05-05 11:50 | 32.00247 | 34.87772 | 115 ft | 4 kts | 251° |
| 2026-05-05 11:51 | 32.00240 | 34.87770 | 115 ft | 0 kts | 211° |
| 2026-05-05 11:52 | 32.00234 | 34.87766 | 115 ft | 2 kts | 211° |
| 2026-05-05 11:52 | 32.00217 | 34.87753 | 118 ft | 4 kts | 211° |
| 2026-05-05 11:53 | 32.00191 | 34.87731 | 116 ft | 5 kts | 226° |
| 2026-05-05 11:53 | 32.00191 | 34.87686 | 120 ft | 6 kts | 297° |
| 2026-05-05 11:53 | 32.00234 | 34.87668 | 120 ft | 8 kts | 9° |
| 2026-05-05 11:53 | 32.00284 | 34.87701 | 119 ft | 9 kts | 31° |
| 2026-05-05 11:54 | 32.00341 | 34.87742 | 117 ft | 10 kts | 31° |
| 2026-05-05 11:54 | 32.00417 | 34.87797 | 118 ft | 16 kts | 31° |
| 2026-05-05 11:54 | 32.00525 | 34.87874 | 117 ft | 21 kts | 31° |
| 2026-05-05 11:54 | 32.00663 | 34.87972 | 117 ft | 26 kts | 31° |
| 2026-05-05 11:55 | 32.00821 | 34.88087 | 115 ft | 27 kts | 31° |
| 2026-05-05 11:55 | 32.00987 | 34.88208 | 120 ft | 29 kts | 31° |
| 2026-05-05 11:55 | 32.01163 | 34.88334 | 118 ft | 30 kts | 31° |
| 2026-05-05 11:55 | 32.01325 | 34.88475 | 118 ft | 29 kts | 45° |
| 2026-05-05 11:56 | 32.01443 | 34.88665 | 117 ft | 28 kts | 62° |
| 2026-05-05 11:56 | 32.01500 | 34.88868 | 120 ft | 26 kts | 80° |
| 2026-05-05 11:56 | 32.01530 | 34.89060 | 120 ft | 19 kts | 79° |
| 2026-05-05 11:56 | 32.01575 | 34.89161 | 119 ft | 13 kts | 16° |
| 2026-05-05 11:57 | 32.01674 | 34.89145 | 116 ft | 16 kts | 349° |
| 2026-05-05 11:57 | 32.01744 | 34.89125 | 116 ft | 5 kts | 323° |
| 2026-05-05 11:57 | 32.01746 | 34.89089 | 118 ft | 5 kts | 259° |
| 2026-05-05 11:57 | 32.01714 | 34.88887 | 120 ft | 56 kts | 259° |
| 2026-05-05 11:58 | 32.01611 | 34.88210 | 120 ft | 109 kts | 259° |
| 2026-05-05 11:58 | 32.01450 | 34.87163 | 120 ft | 150 kts | 260° |
| 2026-05-05 11:58 | 32.01243 | 34.85874 | 468 ft | 162 kts | 257° |
| 2026-05-05 11:58 | 32.00992 | 34.84582 | 1156 ft | 161 kts | 256° |
| 2026-05-05 11:59 | 32.00733 | 34.83322 | 1807 ft | 159 kts | 256° |
| 2026-05-05 11:59 | 32.00472 | 34.82064 | 2348 ft | 158 kts | 256° |
| 2026-05-05 11:59 | 32.00210 | 34.80804 | 2880 ft | 157 kts | 257° |
| 2026-05-05 11:59 | 31.99952 | 34.79560 | 3396 ft | 160 kts | 257° |
| 2026-05-05 12:00 | 31.99687 | 34.78202 | 3589 ft | 181 kts | 262° |
| 2026-05-05 12:00 | 31.99917 | 34.76669 | 3717 ft | 207 kts | 297° |
| 2026-05-05 12:00 | 32.01034 | 34.75427 | 3953 ft | 239 kts | 330° |
| 2026-05-05 12:00 | 32.02744 | 34.75018 | 4418 ft | 266 kts | 0° |
| 2026-05-05 12:01 | 32.04559 | 34.75625 | 5154 ft | 280 kts | 27° |
| 2026-05-05 12:01 | 32.06016 | 34.77192 | 5913 ft | 292 kts | 56° |
| 2026-05-05 12:01 | 32.06703 | 34.79411 | 6633 ft | 297 kts | 86° |
| 2026-05-05 12:01 | 32.06495 | 34.81824 | 7337 ft | 297 kts | 104° |
| 2026-05-05 12:02 | 32.06049 | 34.84221 | 8064 ft | 300 kts | 104° |
| 2026-05-05 12:02 | 32.05583 | 34.86656 | 8731 ft | 307 kts | 104° |
| 2026-05-05 12:02 | 32.05096 | 34.89192 | 8962 ft | 329 kts | 104° |
| 2026-05-05 12:02 | 32.04578 | 34.91912 | 9012 ft | 348 kts | 104° |
| 2026-05-05 12:03 | 32.04050 | 34.94721 | 9008 ft | 353 kts | 103° |
| 2026-05-05 12:03 | 32.03523 | 34.97557 | 9011 ft | 354 kts | 103° |
| 2026-05-05 12:03 | 32.02995 | 35.00389 | 9010 ft | 354 kts | 103° |
| 2026-05-05 12:03 | 32.02466 | 35.03226 | 9008 ft | 355 kts | 103° |
| 2026-05-05 12:04 | 32.01935 | 35.06070 | 9007 ft | 355 kts | 103° |
| 2026-05-05 12:04 | 32.01402 | 35.08925 | 9005 ft | 356 kts | 103° |
| 2026-05-05 12:04 | 32.00870 | 35.11781 | 9007 ft | 357 kts | 103° |
| 2026-05-05 12:04 | 32.00343 | 35.14598 | 9002 ft | 357 kts | 103° |
| 2026-05-05 12:05 | 31.99809 | 35.17460 | 9004 ft | 358 kts | 103° |
| 2026-05-05 12:05 | 31.99273 | 35.20323 | 9004 ft | 357 kts | 104° |
| 2026-05-05 12:05 | 31.98735 | 35.23180 | 8989 ft | 356 kts | 104° |
| 2026-05-05 12:05 | 31.98197 | 35.26023 | 8999 ft | 356 kts | 103° |
| 2026-05-05 12:06 | 31.97660 | 35.28871 | 8999 ft | 354 kts | 104° |
| 2026-05-05 12:06 | 31.97131 | 35.31674 | 8997 ft | 354 kts | 103° |
| 2026-05-05 12:06 | 31.96595 | 35.34504 | 8995 ft | 353 kts | 104° |
| 2026-05-05 12:06 | 31.96062 | 35.37326 | 8997 ft | 353 kts | 104° |
| 2026-05-05 12:07 | 31.95527 | 35.40147 | 8993 ft | 352 kts | 104° |
| 2026-05-05 12:07 | 31.94989 | 35.42965 | 8996 ft | 353 kts | 104° |
| 2026-05-05 12:07 | 31.94453 | 35.45778 | 8998 ft | 352 kts | 104° |
| 2026-05-05 12:07 | 31.93917 | 35.48590 | 8996 ft | 352 kts | 104° |
| 2026-05-05 12:08 | 31.93442 | 35.51412 | 8995 ft | 350 kts | 99° |
| 2026-05-05 12:08 | 31.93248 | 35.54256 | 8994 ft | 348 kts | 92° |
| 2026-05-05 12:08 | 31.93118 | 35.57105 | 9052 ft | 350 kts | 99° |
| 2026-05-05 12:08 | 31.92572 | 35.59863 | 9752 ft | 349 kts | 111° |
| 2026-05-05 12:09 | 31.91590 | 35.62479 | 10394 ft | 350 kts | 122° |
| 2026-05-05 12:09 | 31.90178 | 35.64815 | 10976 ft | 352 kts | 135° |
| 2026-05-05 12:09 | 31.88395 | 35.66858 | 11281 ft | 363 kts | 142° |
| 2026-05-05 12:09 | 31.86483 | 35.68885 | 11778 ft | 370 kts | 142° |
| 2026-05-05 12:10 | 31.84580 | 35.70904 | 12325 ft | 375 kts | 142° |
| 2026-05-05 12:10 | 31.82626 | 35.72983 | 12842 ft | 380 kts | 142° |
| 2026-05-05 12:10 | 31.80653 | 35.75087 | 13401 ft | 386 kts | 142° |
| 2026-05-05 12:10 | 31.78655 | 35.77218 | 13936 ft | 391 kts | 142° |
| 2026-05-05 12:11 | 31.76629 | 35.79381 | 14420 ft | 395 kts | 142° |
| 2026-05-05 12:11 | 31.74589 | 35.81564 | 14905 ft | 398 kts | 142° |
| 2026-05-05 12:11 | 31.72533 | 35.83761 | 15401 ft | 401 kts | 142° |
| 2026-05-05 12:11 | 31.70460 | 35.85970 | 15899 ft | 404 kts | 142° |
| 2026-05-05 12:12 | 31.68370 | 35.88193 | 16374 ft | 407 kts | 142° |
| 2026-05-05 12:12 | 31.66265 | 35.90434 | 16853 ft | 410 kts | 142° |
| 2026-05-05 12:12 | 31.64149 | 35.92688 | 17334 ft | 412 kts | 142° |
| 2026-05-05 12:12 | 31.62017 | 35.94959 | 17842 ft | 415 kts | 142° |
| 2026-05-05 12:13 | 31.59868 | 35.97246 | 18319 ft | 419 kts | 142° |
| 2026-05-05 12:13 | 31.57700 | 35.99543 | 18753 ft | 422 kts | 142° |
| 2026-05-05 12:13 | 31.55513 | 36.01855 | 19203 ft | 424 kts | 142° |
| 2026-05-05 12:13 | 31.54062 | 36.03389 | 19500 ft | 426 kts | 142° |
| 2026-05-05 12:14 | 31.51860 | 36.05723 | 19950 ft | 428 kts | 142° |
| 2026-05-05 12:14 | 31.49645 | 36.08071 | 20397 ft | 430 kts | 142° |
| 2026-05-05 12:14 | 31.47417 | 36.10431 | 20842 ft | 433 kts | 142° |
| 2026-05-05 12:14 | 31.45181 | 36.12799 | 21258 ft | 435 kts | 142° |
| 2026-05-05 12:15 | 31.42927 | 36.15181 | 21662 ft | 437 kts | 142° |
| 2026-05-05 12:15 | 31.40661 | 36.17576 | 22068 ft | 440 kts | 142° |
| 2026-05-05 12:15 | 31.38386 | 36.19977 | 22445 ft | 442 kts | 143° |
| 2026-05-05 12:15 | 31.36094 | 36.22392 | 22837 ft | 445 kts | 143° |
| 2026-05-05 12:16 | 31.33752 | 36.24758 | 23213 ft | 443 kts | 149° |
| 2026-05-05 12:16 | 31.31140 | 36.26617 | 23583 ft | 437 kts | 161° |
| 2026-05-05 12:16 | 31.28308 | 36.27821 | 23904 ft | 430 kts | 173° |
| 2026-05-05 12:16 | 31.25390 | 36.28357 | 24225 ft | 421 kts | 184° |
| 2026-05-05 12:17 | 31.22490 | 36.28260 | 24552 ft | 413 kts | 194° |
| 2026-05-05 12:17 | 31.19701 | 36.27571 | 24886 ft | 405 kts | 204° |
| 2026-05-05 12:17 | 31.17007 | 36.26593 | 25223 ft | 406 kts | 204° |
| 2026-05-05 12:17 | 31.14307 | 36.25614 | 25561 ft | 407 kts | 204° |
| 2026-05-05 12:18 | 31.11603 | 36.24639 | 25898 ft | 407 kts | 204° |
| 2026-05-05 12:18 | 31.08891 | 36.23662 | 26235 ft | 408 kts | 205° |
| 2026-05-05 12:18 | 31.06172 | 36.22681 | 26566 ft | 410 kts | 205° |
| 2026-05-05 12:18 | 31.03446 | 36.21696 | 26900 ft | 411 kts | 205° |
| 2026-05-05 12:19 | 31.00712 | 36.20708 | 27243 ft | 412 kts | 205° |
| 2026-05-05 12:19 | 30.97970 | 36.19721 | 27572 ft | 413 kts | 205° |
| 2026-05-05 12:19 | 30.95225 | 36.18735 | 27997 ft | 412 kts | 205° |
| 2026-05-05 12:19 | 30.92496 | 36.17756 | 28479 ft | 410 kts | 205° |
| 2026-05-05 12:20 | 30.89778 | 36.16784 | 28947 ft | 408 kts | 206° |
| 2026-05-05 12:20 | 30.87072 | 36.15816 | 29409 ft | 406 kts | 206° |
| 2026-05-05 12:20 | 30.84323 | 36.15000 | 29866 ft | 413 kts | 198° |
| 2026-05-05 12:20 | 30.81422 | 36.14757 | 30281 ft | 425 kts | 188° |
| 2026-05-05 12:21 | 30.78444 | 36.15155 | 30641 ft | 435 kts | 181° |
| 2026-05-05 12:21 | 30.75463 | 36.15753 | 31018 ft | 434 kts | 181° |
| 2026-05-05 12:21 | 30.72493 | 36.16353 | 31388 ft | 432 kts | 181° |
| 2026-05-05 12:21 | 30.69535 | 36.16946 | 31778 ft | 430 kts | 181° |
| 2026-05-05 12:22 | 30.66591 | 36.17533 | 32157 ft | 429 kts | 181° |
| 2026-05-05 12:22 | 30.63657 | 36.18116 | 32550 ft | 427 kts | 182° |
| 2026-05-05 12:22 | 30.60731 | 36.18692 | 32913 ft | 426 kts | 182° |
| 2026-05-05 12:22 | 30.57809 | 36.19263 | 33012 ft | 427 kts | 182° |
| 2026-05-05 12:23 | 30.51857 | 36.20417 | 33024 ft | 439 kts | 181° |
| 2026-05-05 12:23 | 30.45817 | 36.21614 | 33018 ft | 441 kts | 181° |
| 2026-05-05 12:24 | 30.39808 | 36.22802 | 33018 ft | 441 kts | 181° |
| 2026-05-05 12:24 | 30.33760 | 36.23992 | 33012 ft | 441 kts | 181° |
| 2026-05-05 12:25 | 30.27714 | 36.25179 | 33000 ft | 440 kts | 181° |
| 2026-05-05 12:25 | 30.21673 | 36.26362 | 32998 ft | 440 kts | 181° |
| 2026-05-05 12:26 | 30.15635 | 36.27557 | 32985 ft | 441 kts | 181° |
| 2026-05-05 12:26 | 30.09596 | 36.28820 | 32986 ft | 441 kts | 180° |
| 2026-05-05 12:27 | 30.03523 | 36.30089 | 32982 ft | 440 kts | 180° |
| 2026-05-05 12:27 | 29.97489 | 36.31331 | 32975 ft | 440 kts | 180° |
| 2026-05-05 12:28 | 29.91456 | 36.32574 | 32976 ft | 440 kts | 180° |
| 2026-05-05 12:28 | 29.85430 | 36.33813 | 32977 ft | 440 kts | 180° |
| 2026-05-05 12:29 | 29.79399 | 36.35050 | 32981 ft | 440 kts | 180° |
| 2026-05-05 12:29 | 29.73375 | 36.36287 | 32985 ft | 440 kts | 180° |
| 2026-05-05 12:30 | 29.67349 | 36.37504 | 32987 ft | 439 kts | 181° |
| 2026-05-05 12:30 | 29.61326 | 36.38592 | 32996 ft | 438 kts | 181° |
| 2026-05-05 12:31 | 29.55306 | 36.39642 | 32997 ft | 437 kts | 181° |
| 2026-05-05 12:31 | 29.49296 | 36.40716 | 32996 ft | 437 kts | 181° |
| 2026-05-05 12:32 | 29.43284 | 36.41795 | 32990 ft | 437 kts | 181° |
| 2026-05-05 12:32 | 29.37274 | 36.42883 | 32991 ft | 437 kts | 181° |
| 2026-05-05 12:33 | 29.31266 | 36.43970 | 32992 ft | 437 kts | 180° |
| 2026-05-05 12:33 | 29.25261 | 36.45070 | 32990 ft | 437 kts | 180° |
| 2026-05-05 12:34 | 29.19262 | 36.46163 | 32992 ft | 436 kts | 180° |
| 2026-05-05 12:34 | 29.13264 | 36.47242 | 32987 ft | 436 kts | 180° |
| 2026-05-05 12:35 | 29.07268 | 36.48325 | 32982 ft | 436 kts | 180° |
| 2026-05-05 12:35 | 29.01268 | 36.49403 | 32975 ft | 436 kts | 180° |
| 2026-05-05 12:36 | 28.95271 | 36.50486 | 32971 ft | 436 kts | 180° |
| 2026-05-05 12:36 | 28.89271 | 36.51574 | 32969 ft | 437 kts | 180° |
| 2026-05-05 12:37 | 28.83270 | 36.52662 | 32969 ft | 437 kts | 180° |
| 2026-05-05 12:37 | 28.77273 | 36.53739 | 32968 ft | 436 kts | 180° |
| 2026-05-05 12:38 | 28.71275 | 36.54812 | 32976 ft | 436 kts | 180° |
| 2026-05-05 12:38 | 28.65281 | 36.55891 | 32965 ft | 436 kts | 180° |
| 2026-05-05 12:39 | 28.59293 | 36.56962 | 32953 ft | 435 kts | 181° |
| 2026-05-05 12:39 | 28.53306 | 36.58015 | 32945 ft | 435 kts | 181° |
| 2026-05-05 12:40 | 28.47319 | 36.59086 | 32937 ft | 436 kts | 180° |
| 2026-05-05 12:40 | 28.41329 | 36.60155 | 32935 ft | 435 kts | 181° |
| 2026-05-05 12:41 | 28.35363 | 36.60944 | 32935 ft | 423 kts | 190° |
| 2026-05-05 12:41 | 28.29522 | 36.60622 | 32930 ft | 420 kts | 192° |
| 2026-05-05 12:42 | 28.23673 | 36.60296 | 32933 ft | 421 kts | 192° |
| 2026-05-05 12:42 | 28.17855 | 36.59965 | 32936 ft | 421 kts | 192° |
| 2026-05-05 12:43 | 28.11999 | 36.59635 | 32944 ft | 421 kts | 192° |
| 2026-05-05 12:43 | 28.06137 | 36.59312 | 32950 ft | 421 kts | 192° |
| 2026-05-05 12:44 | 28.00249 | 36.58971 | 32958 ft | 420 kts | 192° |
| 2026-05-05 12:44 | 27.94409 | 36.58632 | 32956 ft | 420 kts | 192° |
| 2026-05-05 12:45 | 27.88603 | 36.58301 | 32954 ft | 421 kts | 192° |
| 2026-05-05 12:45 | 27.82746 | 36.57977 | 33065 ft | 423 kts | 192° |
| 2026-05-05 12:46 | 27.79806 | 36.57814 | 33370 ft | 423 kts | 192° |
| 2026-05-05 12:46 | 27.76872 | 36.57653 | 33724 ft | 422 kts | 192° |
| 2026-05-05 12:46 | 27.73945 | 36.57488 | 34075 ft | 420 kts | 192° |
| 2026-05-05 12:46 | 27.71024 | 36.57321 | 34383 ft | 419 kts | 192° |
| 2026-05-05 12:47 | 27.68114 | 36.57156 | 34704 ft | 419 kts | 192° |
| 2026-05-05 12:47 | 27.65206 | 36.56990 | 34930 ft | 418 kts | 192° |
| 2026-05-05 12:47 | 27.59403 | 36.56668 | 34972 ft | 417 kts | 192° |
| 2026-05-05 12:48 | 27.53606 | 36.56345 | 34969 ft | 417 kts | 192° |
| 2026-05-05 12:48 | 27.47808 | 36.56020 | 34968 ft | 417 kts | 192° |
| 2026-05-05 12:49 | 27.42009 | 36.55692 | 34966 ft | 417 kts | 192° |
| 2026-05-05 12:49 | 27.36207 | 36.55369 | 34959 ft | 418 kts | 192° |
| 2026-05-05 12:50 | 27.30396 | 36.55035 | 34956 ft | 418 kts | 192° |
| 2026-05-05 12:50 | 27.24587 | 36.54711 | 34947 ft | 418 kts | 192° |
| 2026-05-05 12:51 | 27.18779 | 36.54385 | 34942 ft | 418 kts | 192° |
| 2026-05-05 12:51 | 27.12966 | 36.54051 | 34940 ft | 418 kts | 192° |
| 2026-05-05 12:52 | 27.08130 | 36.53783 | 34942 ft | 419 kts | 191° |
| 2026-05-05 12:52 | 27.02301 | 36.53468 | 34948 ft | 419 kts | 191° |
| 2026-05-05 12:53 | 26.96479 | 36.53154 | 34942 ft | 419 kts | 191° |
| 2026-05-05 12:53 | 26.90656 | 36.52829 | 34946 ft | 419 kts | 192° |
| 2026-05-05 12:54 | 26.81914 | 36.52345 | 34948 ft | 419 kts | 191° |
| 2026-05-05 12:55 | 26.76081 | 36.52032 | 34948 ft | 419 kts | 191° |
| 2026-05-05 12:55 | 26.70252 | 36.51713 | 34944 ft | 419 kts | 191° |
| 2026-05-05 12:56 | 26.64418 | 36.51396 | 34941 ft | 419 kts | 192° |
| 2026-05-05 12:56 | 26.58594 | 36.51061 | 34938 ft | 419 kts | 192° |
| 2026-05-05 12:57 | 26.52805 | 36.50733 | 34943 ft | 419 kts | 191° |
| 2026-05-05 12:57 | 26.46974 | 36.50417 | 34946 ft | 420 kts | 191° |
| 2026-05-05 12:58 | 26.41141 | 36.50097 | 34944 ft | 419 kts | 191° |
| 2026-05-05 12:58 | 26.35313 | 36.49776 | 34946 ft | 419 kts | 191° |
| 2026-05-05 12:59 | 26.29485 | 36.49449 | 34949 ft | 419 kts | 191° |
| 2026-05-05 12:59 | 26.23641 | 36.49295 | 34951 ft | 429 kts | 182° |
| 2026-05-05 13:00 | 26.17890 | 36.51709 | 34947 ft | 465 kts | 152° |
| 2026-05-05 13:00 | 26.15491 | 36.54218 | 34939 ft | 484 kts | 136° |
| 2026-05-05 13:01 | 26.10353 | 36.64180 | 34920 ft | 498 kts | 126° |
| 2026-05-05 13:01 | 26.08673 | 36.67609 | 34916 ft | 498 kts | 126° |
| 2026-05-05 13:01 | 26.05341 | 36.74381 | 34911 ft | 499 kts | 126° |
| 2026-05-05 13:02 | 26.01991 | 36.81149 | 34911 ft | 500 kts | 127° |
| 2026-05-05 13:02 | 25.98633 | 36.87920 | 34916 ft | 500 kts | 127° |
| 2026-05-05 13:03 | 25.95272 | 36.94694 | 34925 ft | 501 kts | 127° |
| 2026-05-05 13:03 | 25.91908 | 37.01474 | 34935 ft | 501 kts | 127° |
| 2026-05-05 13:04 | 25.88534 | 37.08245 | 34933 ft | 501 kts | 127° |
| 2026-05-05 13:04 | 25.85151 | 37.15024 | 34931 ft | 502 kts | 127° |
| 2026-05-05 13:05 | 25.81658 | 37.21691 | 34931 ft | 493 kts | 135° |
| 2026-05-05 13:05 | 25.79503 | 37.24590 | 34925 ft | 482 kts | 143° |
| 2026-05-05 13:05 | 25.77058 | 37.27057 | 34911 ft | 470 kts | 152° |
| 2026-05-05 13:06 | 25.71738 | 37.31123 | 34905 ft | 464 kts | 156° |
| 2026-05-05 13:06 | 25.66392 | 37.35144 | 34908 ft | 465 kts | 156° |
| 2026-05-05 13:07 | 25.61050 | 37.39180 | 34914 ft | 465 kts | 156° |
| 2026-05-05 13:07 | 25.55706 | 37.43219 | 34923 ft | 465 kts | 156° |
| 2026-05-05 13:08 | 25.50352 | 37.47248 | 34929 ft | 465 kts | 156° |
| 2026-05-05 13:08 | 25.45015 | 37.51267 | 34925 ft | 466 kts | 156° |
| 2026-05-05 13:09 | 25.39659 | 37.55296 | 34930 ft | 465 kts | 156° |
| 2026-05-05 13:09 | 25.34304 | 37.59311 | 34921 ft | 465 kts | 156° |
| 2026-05-05 13:10 | 25.28945 | 37.63318 | 34931 ft | 465 kts | 156° |
| 2026-05-05 13:10 | 25.23586 | 37.67322 | 34931 ft | 465 kts | 156° |
| 2026-05-05 13:11 | 25.18218 | 37.71329 | 34928 ft | 465 kts | 156° |
| 2026-05-05 13:11 | 25.12866 | 37.75345 | 34921 ft | 465 kts | 156° |
| 2026-05-05 13:12 | 25.07512 | 37.79364 | 34916 ft | 465 kts | 156° |
| 2026-05-05 13:12 | 25.02152 | 37.83364 | 34898 ft | 465 kts | 157° |
| 2026-05-05 13:13 | 24.96783 | 37.87365 | 34897 ft | 466 kts | 157° |
| 2026-05-05 13:13 | 24.91413 | 37.91370 | 34891 ft | 466 kts | 157° |
| 2026-05-05 13:14 | 24.86037 | 37.95375 | 34884 ft | 467 kts | 157° |
| 2026-05-05 13:14 | 24.80657 | 37.99375 | 34870 ft | 467 kts | 157° |
| 2026-05-05 13:15 | 24.75267 | 38.03375 | 34863 ft | 467 kts | 157° |
| 2026-05-05 13:15 | 24.69881 | 38.07375 | 34857 ft | 467 kts | 156° |
| 2026-05-05 13:16 | 24.64497 | 38.11372 | 34849 ft | 467 kts | 157° |
| 2026-05-05 13:16 | 24.59117 | 38.15354 | 34832 ft | 466 kts | 157° |
| 2026-05-05 13:17 | 24.53735 | 38.19341 | 34823 ft | 467 kts | 156° |
| 2026-05-05 13:17 | 24.48349 | 38.23328 | 34821 ft | 467 kts | 156° |
| 2026-05-05 13:18 | 24.42965 | 38.27309 | 34815 ft | 466 kts | 157° |
| 2026-05-05 13:18 | 24.37578 | 38.31281 | 34815 ft | 466 kts | 157° |
| 2026-05-05 13:19 | 24.32183 | 38.35251 | 34820 ft | 466 kts | 157° |
| 2026-05-05 13:19 | 24.26794 | 38.39209 | 34822 ft | 467 kts | 157° |
| 2026-05-05 13:20 | 24.21400 | 38.43168 | 34845 ft | 466 kts | 157° |
| 2026-05-05 13:20 | 24.16011 | 38.47116 | 34864 ft | 466 kts | 156° |
| 2026-05-05 13:21 | 24.10627 | 38.51057 | 34874 ft | 465 kts | 156° |
| 2026-05-05 13:21 | 24.05250 | 38.55000 | 34881 ft | 465 kts | 156° |
| 2026-05-05 13:22 | 23.99874 | 38.58934 | 34882 ft | 464 kts | 156° |
| 2026-05-05 13:22 | 23.94502 | 38.62859 | 34888 ft | 464 kts | 156° |
| 2026-05-05 13:23 | 23.89130 | 38.66781 | 34891 ft | 464 kts | 156° |
| 2026-05-05 13:23 | 23.83761 | 38.70693 | 34890 ft | 464 kts | 156° |
| 2026-05-05 13:24 | 23.78392 | 38.74596 | 34893 ft | 463 kts | 156° |
| 2026-05-05 13:24 | 23.72944 | 38.78247 | 34898 ft | 450 kts | 166° |
| 2026-05-05 13:25 | 23.70054 | 38.79444 | 34897 ft | 439 kts | 173° |
| 2026-05-05 13:25 | 23.67135 | 38.80422 | 34898 ft | 439 kts | 173° |
| 2026-05-05 13:25 | 23.61293 | 38.82373 | 34893 ft | 439 kts | 173° |
| 2026-05-05 13:26 | 23.55451 | 38.84319 | 34891 ft | 439 kts | 173° |
| 2026-05-05 13:26 | 23.49613 | 38.86275 | 34888 ft | 439 kts | 173° |
| 2026-05-05 13:27 | 23.43767 | 38.88233 | 34888 ft | 439 kts | 173° |
| 2026-05-05 13:27 | 23.37923 | 38.90193 | 34885 ft | 440 kts | 172° |
| 2026-05-05 13:28 | 23.32114 | 38.92135 | 34884 ft | 439 kts | 173° |
| 2026-05-05 13:28 | 23.26224 | 38.94091 | 34884 ft | 440 kts | 172° |
| 2026-05-05 13:29 | 23.20408 | 38.96025 | 34885 ft | 440 kts | 172° |
| 2026-05-05 13:29 | 23.14548 | 38.97980 | 34884 ft | 440 kts | 172° |
| 2026-05-05 13:30 | 23.08690 | 38.99930 | 34881 ft | 441 kts | 172° |
| 2026-05-05 13:30 | 23.03776 | 39.01570 | 34880 ft | 441 kts | 172° |
| 2026-05-05 13:31 | 22.97911 | 39.03522 | 34877 ft | 441 kts | 172° |
| 2026-05-05 13:31 | 22.92035 | 39.05467 | 34874 ft | 441 kts | 172° |
| 2026-05-05 13:32 | 22.86155 | 39.07410 | 34875 ft | 442 kts | 172° |
| 2026-05-05 13:32 | 22.80266 | 39.09304 | 34872 ft | 437 kts | 177° |
| 2026-05-05 13:33 | 22.77297 | 39.09764 | 34874 ft | 426 kts | 186° |
| 2026-05-05 13:33 | 22.74353 | 39.09842 | 34871 ft | 423 kts | 187° |
| 2026-05-05 13:33 | 22.68450 | 39.09975 | 34868 ft | 424 kts | 187° |
| 2026-05-05 13:34 | 22.62545 | 39.10111 | 34866 ft | 425 kts | 187° |
| 2026-05-05 13:34 | 22.56633 | 39.10260 | 34867 ft | 425 kts | 186° |
| 2026-05-05 13:35 | 22.50708 | 39.10411 | 34867 ft | 426 kts | 187° |
| 2026-05-05 13:35 | 22.44817 | 39.10553 | 34863 ft | 426 kts | 187° |
| 2026-05-05 13:36 | 22.38845 | 39.10691 | 35016 ft | 427 kts | 186° |
| 2026-05-05 13:36 | 22.35915 | 39.10761 | 35316 ft | 426 kts | 186° |
| 2026-05-05 13:36 | 22.32951 | 39.10834 | 35597 ft | 425 kts | 186° |
| 2026-05-05 13:37 | 22.29994 | 39.10905 | 35811 ft | 426 kts | 186° |
| 2026-05-05 13:37 | 22.27028 | 39.10976 | 35861 ft | 425 kts | 186° |
| 2026-05-05 13:37 | 22.21117 | 39.11121 | 35863 ft | 425 kts | 186° |
| 2026-05-05 13:38 | 22.15205 | 39.11262 | 35863 ft | 425 kts | 186° |
| 2026-05-05 13:38 | 22.09288 | 39.11401 | 35859 ft | 426 kts | 186° |
| 2026-05-05 13:39 | 22.03363 | 39.11541 | 35858 ft | 426 kts | 186° |
| 2026-05-05 13:39 | 21.97430 | 39.11684 | 35854 ft | 427 kts | 186° |
| 2026-05-05 13:40 | 21.91487 | 39.11829 | 35846 ft | 427 kts | 186° |
| 2026-05-05 13:40 | 21.85539 | 39.11973 | 35839 ft | 427 kts | 186° |
| 2026-05-05 13:41 | 21.79595 | 39.12110 | 35835 ft | 428 kts | 186° |
| 2026-05-05 13:41 | 21.73638 | 39.12255 | 35832 ft | 428 kts | 186° |
| 2026-05-05 13:42 | 21.67690 | 39.12327 | 35830 ft | 426 kts | 188° |
| 2026-05-05 13:42 | 21.61764 | 39.12156 | 35831 ft | 426 kts | 189° |
| 2026-05-05 13:43 | 21.55837 | 39.11931 | 35832 ft | 426 kts | 188° |
| 2026-05-05 13:43 | 21.49899 | 39.11750 | 35837 ft | 427 kts | 188° |
| 2026-05-05 13:44 | 21.43949 | 39.11609 | 35836 ft | 428 kts | 188° |
| 2026-05-05 13:44 | 21.37999 | 39.11467 | 35835 ft | 428 kts | 188° |
| 2026-05-05 13:45 | 21.32042 | 39.11314 | 35835 ft | 429 kts | 188° |
| 2026-05-05 13:45 | 21.26075 | 39.11164 | 35836 ft | 429 kts | 188° |
| 2026-05-05 13:46 | 21.20103 | 39.11007 | 35832 ft | 429 kts | 188° |
| 2026-05-05 13:46 | 21.14134 | 39.10849 | 35829 ft | 429 kts | 187° |
| 2026-05-05 13:47 | 21.08156 | 39.10705 | 35830 ft | 430 kts | 187° |
| 2026-05-05 13:47 | 21.02174 | 39.10559 | 35833 ft | 430 kts | 187° |
| 2026-05-05 13:48 | 20.96186 | 39.10411 | 35825 ft | 431 kts | 187° |
| 2026-05-05 13:48 | 20.90195 | 39.10258 | 35830 ft | 431 kts | 187° |
| 2026-05-05 13:49 | 20.84194 | 39.10103 | 35826 ft | 431 kts | 187° |
| 2026-05-05 13:49 | 20.78189 | 39.09949 | 35819 ft | 432 kts | 187° |
| 2026-05-05 13:50 | 20.72184 | 39.09793 | 35824 ft | 432 kts | 187° |
| 2026-05-05 13:50 | 20.66169 | 39.09643 | 35826 ft | 432 kts | 187° |
| 2026-05-05 13:51 | 20.60161 | 39.09491 | 35822 ft | 432 kts | 187° |
| 2026-05-05 13:51 | 20.54167 | 39.09341 | 35823 ft | 432 kts | 187° |
| 2026-05-05 13:52 | 20.48120 | 39.09192 | 35822 ft | 432 kts | 186° |
| 2026-05-05 13:52 | 20.42146 | 39.09045 | 35804 ft | 432 kts | 186° |
| 2026-05-05 13:53 | 20.36130 | 39.08891 | 35813 ft | 433 kts | 186° |
| 2026-05-05 13:53 | 20.30106 | 39.08737 | 35819 ft | 433 kts | 186° |
| 2026-05-05 13:54 | 20.24074 | 39.08588 | 35823 ft | 433 kts | 186° |
| 2026-05-05 13:54 | 20.18048 | 39.08439 | 35823 ft | 433 kts | 186° |
| 2026-05-05 13:55 | 20.12012 | 39.08282 | 35821 ft | 434 kts | 186° |
| 2026-05-05 13:55 | 20.05978 | 39.08128 | 35821 ft | 434 kts | 186° |
| 2026-05-05 13:56 | 19.99936 | 39.07975 | 35820 ft | 434 kts | 186° |
| 2026-05-05 13:56 | 19.93891 | 39.07821 | 35818 ft | 435 kts | 186° |
| 2026-05-05 13:57 | 19.87840 | 39.07673 | 35819 ft | 435 kts | 186° |
| 2026-05-05 13:57 | 19.81786 | 39.07521 | 35819 ft | 435 kts | 186° |
| 2026-05-05 13:58 | 19.75724 | 39.07367 | 35815 ft | 436 kts | 186° |
| 2026-05-05 13:58 | 19.69654 | 39.07214 | 35816 ft | 436 kts | 186° |
| 2026-05-05 13:59 | 19.60538 | 39.06982 | 35825 ft | 437 kts | 185° |
| 2026-05-05 14:00 | 19.52436 | 39.06793 | 35827 ft | 438 kts | 185° |
| 2026-05-05 14:00 | 19.45304 | 39.06619 | 35823 ft | 439 kts | 185° |
| 2026-05-05 14:01 | 19.39196 | 39.06464 | 35833 ft | 439 kts | 185° |
| 2026-05-05 14:01 | 19.33080 | 39.06305 | 35831 ft | 439 kts | 185° |
| 2026-05-05 14:02 | 19.26964 | 39.06154 | 35831 ft | 439 kts | 185° |
| 2026-05-05 14:02 | 19.20849 | 39.06005 | 35833 ft | 440 kts | 185° |
| 2026-05-05 14:03 | 19.14731 | 39.05857 | 35830 ft | 440 kts | 185° |
| 2026-05-05 14:03 | 19.08613 | 39.05656 | 35829 ft | 440 kts | 186° |
| 2026-05-05 14:04 | 19.02504 | 39.05294 | 35826 ft | 440 kts | 187° |
| 2026-05-05 14:04 | 18.96392 | 39.04910 | 35831 ft | 440 kts | 187° |
| 2026-05-05 14:05 | 18.90273 | 39.04550 | 35822 ft | 441 kts | 186° |
| 2026-05-05 14:05 | 18.84146 | 39.04210 | 35826 ft | 441 kts | 186° |
| 2026-05-05 14:06 | 18.78004 | 39.03878 | 35826 ft | 442 kts | 186° |
| 2026-05-05 14:06 | 18.71857 | 39.03543 | 35825 ft | 442 kts | 186° |
| 2026-05-05 14:07 | 18.65708 | 39.03206 | 35829 ft | 443 kts | 186° |
| 2026-05-05 14:07 | 18.59548 | 39.02854 | 35833 ft | 444 kts | 186° |
| 2026-05-05 14:08 | 18.53375 | 39.02501 | 35831 ft | 444 kts | 186° |
| 2026-05-05 14:08 | 18.48250 | 39.02219 | 35830 ft | 444 kts | 186° |
| 2026-05-05 14:09 | 18.42078 | 39.01885 | 35831 ft | 444 kts | 186° |
| 2026-05-05 14:09 | 18.35901 | 39.01548 | 35833 ft | 444 kts | 186° |
| 2026-05-05 14:10 | 18.29724 | 39.01210 | 35831 ft | 444 kts | 186° |
| 2026-05-05 14:10 | 18.23543 | 39.00868 | 35833 ft | 445 kts | 186° |
| 2026-05-05 14:11 | 18.17360 | 39.00530 | 35831 ft | 445 kts | 186° |
| 2026-05-05 14:11 | 18.11172 | 39.00242 | 35830 ft | 446 kts | 185° |
| 2026-05-05 14:12 | 18.04970 | 39.00040 | 35830 ft | 446 kts | 184° |
| 2026-05-05 14:12 | 17.98761 | 38.99846 | 35832 ft | 447 kts | 184° |
| 2026-05-05 14:13 | 17.92547 | 38.99628 | 35833 ft | 446 kts | 185° |
| 2026-05-05 14:13 | 17.86335 | 38.99400 | 35836 ft | 447 kts | 185° |
| 2026-05-05 14:14 | 17.80119 | 38.99172 | 35836 ft | 447 kts | 184° |
| 2026-05-05 14:14 | 17.73899 | 38.98950 | 35836 ft | 447 kts | 184° |
| 2026-05-05 14:15 | 17.67681 | 38.98731 | 35835 ft | 447 kts | 184° |
| 2026-05-05 14:15 | 17.61462 | 38.98509 | 35837 ft | 447 kts | 184° |
| 2026-05-05 14:16 | 17.55239 | 38.98279 | 35839 ft | 447 kts | 184° |
| 2026-05-05 14:16 | 17.49019 | 38.98055 | 35837 ft | 447 kts | 184° |
| 2026-05-05 14:17 | 17.42796 | 38.97837 | 35840 ft | 447 kts | 184° |
| 2026-05-05 14:17 | 17.36605 | 38.97619 | 35841 ft | 448 kts | 184° |
| 2026-05-05 14:18 | 17.30382 | 38.97387 | 35843 ft | 448 kts | 184° |
| 2026-05-05 14:18 | 17.24156 | 38.97151 | 35843 ft | 448 kts | 184° |
| 2026-05-05 14:19 | 17.17888 | 38.96917 | 35845 ft | 448 kts | 184° |
| 2026-05-05 14:19 | 17.11658 | 38.96689 | 35844 ft | 448 kts | 184° |
| 2026-05-05 14:20 | 17.05463 | 38.96466 | 35844 ft | 448 kts | 184° |
| 2026-05-05 14:20 | 16.99224 | 38.96248 | 35844 ft | 449 kts | 184° |
| 2026-05-05 14:21 | 16.92985 | 38.96024 | 35845 ft | 449 kts | 184° |
| 2026-05-05 14:21 | 16.86745 | 38.95792 | 35846 ft | 449 kts | 184° |
| 2026-05-05 14:22 | 16.80496 | 38.95562 | 35848 ft | 449 kts | 184° |
| 2026-05-05 14:22 | 16.74246 | 38.95329 | 35849 ft | 450 kts | 184° |
| 2026-05-05 14:23 | 16.67994 | 38.95107 | 35848 ft | 450 kts | 184° |
| 2026-05-05 14:23 | 16.61731 | 38.94880 | 35852 ft | 450 kts | 184° |
| 2026-05-05 14:24 | 16.55464 | 38.94655 | 35853 ft | 450 kts | 184° |
| 2026-05-05 14:24 | 16.49197 | 38.94429 | 35855 ft | 451 kts | 184° |
| 2026-05-05 14:25 | 16.42921 | 38.94203 | 35859 ft | 451 kts | 184° |
| 2026-05-05 14:25 | 16.36647 | 38.93978 | 35861 ft | 451 kts | 184° |
| 2026-05-05 14:26 | 16.30365 | 38.93755 | 35862 ft | 452 kts | 184° |
| 2026-05-05 14:26 | 16.24079 | 38.93530 | 35868 ft | 452 kts | 184° |
| 2026-05-05 14:27 | 16.17796 | 38.93296 | 35874 ft | 452 kts | 184° |
| 2026-05-05 14:27 | 16.11504 | 38.93070 | 35878 ft | 453 kts | 183° |
| 2026-05-05 14:28 | 16.05205 | 38.92851 | 35882 ft | 453 kts | 183° |
| 2026-05-05 14:28 | 15.98899 | 38.92623 | 35893 ft | 453 kts | 183° |
| 2026-05-05 14:29 | 15.92600 | 38.92388 | 35900 ft | 453 kts | 183° |
| 2026-05-05 14:29 | 15.86291 | 38.92161 | 35905 ft | 453 kts | 183° |
| 2026-05-05 14:30 | 15.79979 | 38.91940 | 35913 ft | 454 kts | 183° |
| 2026-05-05 14:30 | 15.73668 | 38.91715 | 35925 ft | 454 kts | 183° |
| 2026-05-05 14:31 | 15.67361 | 38.91491 | 35931 ft | 454 kts | 183° |
| 2026-05-05 14:31 | 15.61050 | 38.91257 | 35942 ft | 454 kts | 183° |
| 2026-05-05 14:32 | 15.54738 | 38.91023 | 35951 ft | 454 kts | 183° |
| 2026-05-05 14:32 | 15.48425 | 38.90798 | 35959 ft | 454 kts | 183° |
| 2026-05-05 14:33 | 15.42115 | 38.90576 | 35964 ft | 454 kts | 183° |
| 2026-05-05 14:33 | 15.35799 | 38.90349 | 35973 ft | 454 kts | 183° |
| 2026-05-05 14:34 | 15.29487 | 38.90124 | 35974 ft | 454 kts | 183° |
| 2026-05-05 14:34 | 15.23172 | 38.89989 | 35979 ft | 454 kts | 181° |
| 2026-05-05 14:35 | 15.16848 | 38.90023 | 35978 ft | 454 kts | 181° |
| 2026-05-05 14:35 | 15.10523 | 38.90070 | 35976 ft | 454 kts | 181° |
| 2026-05-05 14:36 | 15.04200 | 38.90072 | 35972 ft | 454 kts | 181° |
| 2026-05-05 14:36 | 14.97879 | 38.90056 | 35964 ft | 454 kts | 181° |
| 2026-05-05 14:37 | 14.91558 | 38.90049 | 35955 ft | 454 kts | 181° |
| 2026-05-05 14:37 | 14.85241 | 38.90045 | 35948 ft | 454 kts | 181° |
| 2026-05-05 14:38 | 14.78929 | 38.90036 | 35938 ft | 454 kts | 181° |
| 2026-05-05 14:38 | 14.72620 | 38.90029 | 35928 ft | 453 kts | 181° |
| 2026-05-05 14:39 | 14.66319 | 38.90028 | 35923 ft | 453 kts | 181° |
| 2026-05-05 14:39 | 14.60000 | 38.90024 | 35917 ft | 453 kts | 181° |
| 2026-05-05 14:40 | 14.53689 | 38.90008 | 35915 ft | 453 kts | 181° |
| 2026-05-05 14:40 | 14.47383 | 38.89997 | 35914 ft | 453 kts | 181° |
| 2026-05-05 14:41 | 14.41079 | 38.89930 | 35914 ft | 453 kts | 182° |
| 2026-05-05 14:41 | 14.34772 | 38.89842 | 35920 ft | 453 kts | 182° |
| 2026-05-05 14:42 | 14.28460 | 38.89769 | 35925 ft | 453 kts | 182° |
| 2026-05-05 14:42 | 14.22150 | 38.89710 | 35928 ft | 453 kts | 182° |
| 2026-05-05 14:43 | 14.15838 | 38.89641 | 35929 ft | 453 kts | 182° |
| 2026-05-05 14:43 | 14.09528 | 38.89565 | 35925 ft | 453 kts | 182° |
| 2026-05-05 14:44 | 14.03217 | 38.89495 | 35924 ft | 453 kts | 182° |
| 2026-05-05 14:44 | 13.96948 | 38.89395 | 35925 ft | 454 kts | 182° |
| 2026-05-05 14:45 | 13.90638 | 38.89268 | 35922 ft | 454 kts | 182° |
| 2026-05-05 14:45 | 13.84283 | 38.89147 | 35918 ft | 454 kts | 182° |
| 2026-05-05 14:46 | 13.77966 | 38.89031 | 35910 ft | 454 kts | 182° |
| 2026-05-05 14:46 | 13.71684 | 38.88921 | 35904 ft | 454 kts | 182° |
| 2026-05-05 14:47 | 13.65359 | 38.88813 | 35899 ft | 455 kts | 182° |
| 2026-05-05 14:47 | 13.60062 | 38.88719 | 35893 ft | 455 kts | 182° |
| 2026-05-05 14:48 | 13.53730 | 38.88599 | 35889 ft | 455 kts | 182° |
| 2026-05-05 14:48 | 13.46366 | 38.88470 | 35884 ft | 455 kts | 182° |
| 2026-05-05 14:49 | 13.40036 | 38.88357 | 35879 ft | 455 kts | 182° |
| 2026-05-05 14:49 | 13.34719 | 38.88255 | 35878 ft | 455 kts | 182° |
| 2026-05-05 14:50 | 13.28381 | 38.88144 | 35871 ft | 455 kts | 182° |
| 2026-05-05 14:50 | 13.22043 | 38.88032 | 35870 ft | 456 kts | 182° |
| 2026-05-05 14:51 | 13.15708 | 38.87918 | 35864 ft | 456 kts | 182° |
| 2026-05-05 14:51 | 13.09365 | 38.87806 | 35865 ft | 456 kts | 182° |
| 2026-05-05 14:52 | 13.03024 | 38.87687 | 35867 ft | 456 kts | 182° |
| 2026-05-05 14:52 | 12.96680 | 38.87576 | 35869 ft | 456 kts | 182° |
| 2026-05-05 14:53 | 12.90337 | 38.87461 | 35874 ft | 456 kts | 182° |
| 2026-05-05 14:53 | 12.84000 | 38.87286 | 35882 ft | 456 kts | 183° |
| 2026-05-05 14:54 | 12.77655 | 38.87083 | 35893 ft | 456 kts | 183° |
| 2026-05-05 14:54 | 12.71347 | 38.86897 | 35902 ft | 456 kts | 183° |
| 2026-05-05 14:55 | 12.64998 | 38.86725 | 35912 ft | 456 kts | 183° |
| 2026-05-05 14:55 | 12.58646 | 38.86550 | 35925 ft | 457 kts | 183° |
| 2026-05-05 14:56 | 12.52294 | 38.86370 | 35934 ft | 457 kts | 183° |
| 2026-05-05 14:56 | 12.45936 | 38.86190 | 35938 ft | 457 kts | 183° |
| 2026-05-05 14:57 | 12.39579 | 38.86012 | 35945 ft | 457 kts | 183° |
| 2026-05-05 14:57 | 12.33219 | 38.85837 | 35952 ft | 457 kts | 183° |
| 2026-05-05 14:58 | 12.26864 | 38.85660 | 35950 ft | 457 kts | 183° |
| 2026-05-05 14:58 | 12.20504 | 38.85474 | 35950 ft | 457 kts | 183° |
| 2026-05-05 14:59 | 12.14143 | 38.85297 | 35956 ft | 457 kts | 183° |
| 2026-05-05 14:59 | 12.07781 | 38.85125 | 35958 ft | 458 kts | 183° |
| 2026-05-05 15:00 | 12.02486 | 38.84983 | 35959 ft | 458 kts | 183° |
| 2026-05-05 15:00 | 11.95050 | 38.84767 | 35967 ft | 458 kts | 183° |
| 2026-05-05 15:01 | 11.88677 | 38.84584 | 35970 ft | 458 kts | 183° |
| 2026-05-05 15:01 | 11.82311 | 38.84416 | 35968 ft | 458 kts | 183° |
| 2026-05-05 15:02 | 11.75940 | 38.84243 | 35969 ft | 458 kts | 183° |
| 2026-05-05 15:02 | 11.69576 | 38.84072 | 35972 ft | 458 kts | 183° |
| 2026-05-05 15:03 | 11.63204 | 38.83894 | 35967 ft | 458 kts | 183° |
| 2026-05-05 15:03 | 11.56834 | 38.83718 | 35969 ft | 458 kts | 183° |
| 2026-05-05 15:04 | 11.50455 | 38.83545 | 35966 ft | 458 kts | 183° |
| 2026-05-05 15:04 | 11.44076 | 38.83357 | 35964 ft | 458 kts | 183° |
| 2026-05-05 15:05 | 11.34517 | 38.83105 | 35956 ft | 459 kts | 182° |
| 2026-05-05 15:06 | 11.28114 | 38.82940 | 35955 ft | 459 kts | 183° |
| 2026-05-05 15:06 | 11.21735 | 38.82757 | 35958 ft | 459 kts | 183° |
| 2026-05-05 15:07 | 11.15345 | 38.82576 | 35965 ft | 459 kts | 183° |
| 2026-05-05 15:07 | 11.08954 | 38.82403 | 35972 ft | 459 kts | 183° |
| 2026-05-05 15:08 | 11.02559 | 38.82227 | 35980 ft | 460 kts | 182° |
| 2026-05-05 15:08 | 10.96164 | 38.82050 | 35983 ft | 460 kts | 182° |
| 2026-05-05 15:09 | 10.89768 | 38.81879 | 35981 ft | 460 kts | 182° |
| 2026-05-05 15:09 | 10.83373 | 38.81696 | 35974 ft | 460 kts | 182° |
| 2026-05-05 15:10 | 10.76977 | 38.81522 | 35964 ft | 460 kts | 182° |
| 2026-05-05 15:10 | 10.70577 | 38.81350 | 35951 ft | 460 kts | 182° |
| 2026-05-05 15:11 | 10.64181 | 38.81176 | 35937 ft | 460 kts | 182° |
| 2026-05-05 15:11 | 10.57774 | 38.81007 | 35923 ft | 460 kts | 182° |
| 2026-05-05 15:12 | 10.51371 | 38.80830 | 35911 ft | 460 kts | 182° |
| 2026-05-05 15:12 | 10.44958 | 38.80642 | 35897 ft | 461 kts | 182° |
| 2026-05-05 15:13 | 10.38549 | 38.80470 | 35889 ft | 461 kts | 182° |
| 2026-05-05 15:13 | 10.32136 | 38.80307 | 35877 ft | 461 kts | 182° |
| 2026-05-05 15:14 | 10.25723 | 38.80138 | 35876 ft | 461 kts | 182° |
| 2026-05-05 15:14 | 10.19306 | 38.79964 | 35876 ft | 461 kts | 182° |
| 2026-05-05 15:15 | 10.12892 | 38.79780 | 35886 ft | 461 kts | 182° |
| 2026-05-05 15:15 | 10.06471 | 38.79602 | 35894 ft | 461 kts | 182° |
| 2026-05-05 15:16 | 10.00049 | 38.79430 | 35904 ft | 462 kts | 182° |
| 2026-05-05 15:16 | 9.93623 | 38.79256 | 35912 ft | 462 kts | 182° |
| 2026-05-05 15:17 | 9.87238 | 38.79081 | 35921 ft | 462 kts | 182° |
| 2026-05-05 15:17 | 9.80770 | 38.78910 | 35931 ft | 462 kts | 182° |
| 2026-05-05 15:18 | 9.74379 | 38.78736 | 35945 ft | 462 kts | 182° |
| 2026-05-05 15:18 | 9.67901 | 38.78556 | 35958 ft | 463 kts | 182° |
| 2026-05-05 15:19 | 9.61519 | 38.78377 | 35970 ft | 463 kts | 182° |
| 2026-05-05 15:19 | 9.55034 | 38.78202 | 35986 ft | 463 kts | 182° |
| 2026-05-05 15:20 | 9.48591 | 38.78025 | 35992 ft | 463 kts | 182° |
| 2026-05-05 15:20 | 9.42148 | 38.77851 | 35997 ft | 463 kts | 182° |
| 2026-05-05 15:21 | 9.36042 | 38.77695 | 36004 ft | 463 kts | 182° |
| 2026-05-05 15:21 | 9.29604 | 38.77525 | 36045 ft | 463 kts | 182° |
| 2026-05-05 15:22 | 9.23159 | 38.77338 | 36117 ft | 463 kts | 182° |
| 2026-05-05 15:22 | 9.16710 | 38.77160 | 36177 ft | 463 kts | 182° |
| 2026-05-05 15:23 | 9.10277 | 38.76829 | 36241 ft | 462 kts | 190° |
| 2026-05-05 15:23 | 9.04028 | 38.75340 | 36286 ft | 461 kts | 195° |
| 2026-05-05 15:24 | 8.97798 | 38.73775 | 36285 ft | 462 kts | 195° |
| 2026-05-05 15:24 | 8.91557 | 38.72221 | 36276 ft | 462 kts | 195° |
| 2026-05-05 15:25 | 8.85311 | 38.70660 | 36213 ft | 462 kts | 195° |
| 2026-05-05 15:25 | 8.79070 | 38.69094 | 36142 ft | 462 kts | 195° |
| 2026-05-05 15:26 | 8.72826 | 38.67525 | 36066 ft | 462 kts | 195° |
| 2026-05-05 15:26 | 8.67632 | 38.66226 | 36001 ft | 463 kts | 195° |
| 2026-05-05 15:27 | 8.61382 | 38.64670 | 35964 ft | 463 kts | 195° |
| 2026-05-05 15:27 | 8.55129 | 38.63101 | 35965 ft | 463 kts | 195° |
| 2026-05-05 15:28 | 8.48873 | 38.61530 | 35971 ft | 463 kts | 195° |
| 2026-05-05 15:28 | 8.42619 | 38.59961 | 35975 ft | 463 kts | 195° |
| 2026-05-05 15:29 | 8.36352 | 38.58393 | 35972 ft | 464 kts | 195° |
| 2026-05-05 15:29 | 8.30082 | 38.56831 | 35974 ft | 464 kts | 195° |
| 2026-05-05 15:30 | 8.23815 | 38.55268 | 35974 ft | 464 kts | 195° |
| 2026-05-05 15:30 | 8.17540 | 38.53699 | 35971 ft | 465 kts | 195° |
| 2026-05-05 15:31 | 8.11262 | 38.52132 | 35965 ft | 465 kts | 195° |
| 2026-05-05 15:31 | 8.04979 | 38.50571 | 35958 ft | 465 kts | 195° |
| 2026-05-05 15:32 | 7.98726 | 38.49016 | 35957 ft | 466 kts | 195° |
| 2026-05-05 15:32 | 7.92431 | 38.47443 | 35954 ft | 466 kts | 195° |
| 2026-05-05 15:33 | 7.86130 | 38.45874 | 35952 ft | 467 kts | 195° |
| 2026-05-05 15:33 | 7.79783 | 38.44297 | 35949 ft | 467 kts | 195° |
| 2026-05-05 15:34 | 7.73471 | 38.42728 | 35948 ft | 467 kts | 195° |
| 2026-05-05 15:34 | 7.67206 | 38.41170 | 35949 ft | 467 kts | 195° |
| 2026-05-05 15:35 | 7.60850 | 38.39584 | 35953 ft | 467 kts | 195° |
| 2026-05-05 15:35 | 7.54579 | 38.38019 | 35951 ft | 467 kts | 195° |
| 2026-05-05 15:36 | 7.48226 | 38.36437 | 35958 ft | 467 kts | 195° |
| 2026-05-05 15:36 | 7.41968 | 38.34804 | 35961 ft | 467 kts | 196° |
| 2026-05-05 15:37 | 7.35698 | 38.33072 | 35965 ft | 467 kts | 196° |
| 2026-05-05 15:37 | 7.29429 | 38.31334 | 35968 ft | 467 kts | 196° |
| 2026-05-05 15:38 | 7.23113 | 38.29616 | 35975 ft | 467 kts | 196° |
| 2026-05-05 15:38 | 7.16834 | 38.27918 | 35977 ft | 467 kts | 195° |
| 2026-05-05 15:39 | 7.10552 | 38.26216 | 35981 ft | 467 kts | 195° |
| 2026-05-05 15:39 | 7.04313 | 38.24519 | 35981 ft | 467 kts | 195° |
| 2026-05-05 15:40 | 6.97990 | 38.22802 | 35981 ft | 468 kts | 195° |
| 2026-05-05 15:40 | 6.91703 | 38.21099 | 35979 ft | 468 kts | 195° |
| 2026-05-05 15:41 | 6.85456 | 38.19408 | 35977 ft | 468 kts | 195° |
| 2026-05-05 15:41 | 6.79169 | 38.17698 | 35973 ft | 468 kts | 195° |
| 2026-05-05 15:42 | 6.72873 | 38.15990 | 35963 ft | 468 kts | 195° |
| 2026-05-05 15:42 | 6.66577 | 38.14292 | 35965 ft | 468 kts | 195° |
| 2026-05-05 15:43 | 6.60280 | 38.12590 | 35963 ft | 469 kts | 195° |
| 2026-05-05 15:43 | 6.53978 | 38.10884 | 35965 ft | 469 kts | 195° |
| 2026-05-05 15:44 | 6.47680 | 38.09171 | 35964 ft | 469 kts | 195° |
| 2026-05-05 15:44 | 6.41383 | 38.07451 | 35964 ft | 469 kts | 195° |
| 2026-05-05 15:45 | 6.35086 | 38.05728 | 35967 ft | 469 kts | 195° |
| 2026-05-05 15:45 | 6.28793 | 38.04015 | 35978 ft | 469 kts | 195° |
| 2026-05-05 15:46 | 6.22500 | 38.02309 | 35975 ft | 469 kts | 195° |
| 2026-05-05 15:46 | 6.16202 | 38.00593 | 35983 ft | 468 kts | 195° |
| 2026-05-05 15:47 | 6.09916 | 37.98880 | 35990 ft | 468 kts | 195° |
| 2026-05-05 15:47 | 6.03631 | 37.97164 | 35990 ft | 468 kts | 195° |
| 2026-05-05 15:48 | 5.97351 | 37.95450 | 35992 ft | 467 kts | 195° |
| 2026-05-05 15:48 | 5.91075 | 37.93741 | 35997 ft | 467 kts | 195° |
| 2026-05-05 15:49 | 5.84797 | 37.92036 | 35989 ft | 467 kts | 195° |
| 2026-05-05 15:49 | 5.78517 | 37.90329 | 35988 ft | 468 kts | 195° |
| 2026-05-05 15:50 | 5.72231 | 37.88621 | 35985 ft | 468 kts | 195° |
| 2026-05-05 15:50 | 5.65937 | 37.86913 | 35986 ft | 469 kts | 195° |
| 2026-05-05 15:51 | 5.59639 | 37.85199 | 35982 ft | 469 kts | 195° |
| 2026-05-05 15:51 | 5.53336 | 37.83484 | 35984 ft | 469 kts | 195° |
| 2026-05-05 15:52 | 5.47032 | 37.81776 | 35984 ft | 469 kts | 195° |
| 2026-05-05 15:52 | 5.40726 | 37.80061 | 35984 ft | 469 kts | 195° |
| 2026-05-05 15:53 | 5.34422 | 37.78344 | 35982 ft | 469 kts | 195° |
| 2026-05-05 15:53 | 5.28117 | 37.76632 | 35979 ft | 469 kts | 195° |
| 2026-05-05 15:54 | 5.21813 | 37.74924 | 35981 ft | 469 kts | 195° |
| 2026-05-05 15:54 | 5.15509 | 37.73218 | 35973 ft | 469 kts | 195° |
| 2026-05-05 15:55 | 5.09205 | 37.71511 | 35975 ft | 469 kts | 195° |
| 2026-05-05 15:55 | 5.02907 | 37.69796 | 35973 ft | 469 kts | 195° |
| 2026-05-05 15:56 | 4.96603 | 37.68075 | 35962 ft | 469 kts | 195° |
| 2026-05-05 15:56 | 4.90295 | 37.66363 | 35969 ft | 469 kts | 195° |
| 2026-05-05 15:57 | 4.83991 | 37.64659 | 35971 ft | 469 kts | 195° |
| 2026-05-05 15:57 | 4.77692 | 37.62952 | 35965 ft | 469 kts | 195° |
| 2026-05-05 15:58 | 4.71385 | 37.61241 | 35962 ft | 469 kts | 195° |
| 2026-05-05 15:58 | 4.65086 | 37.59541 | 35964 ft | 469 kts | 195° |
| 2026-05-05 15:59 | 4.58783 | 37.57843 | 35955 ft | 469 kts | 195° |
| 2026-05-05 15:59 | 4.52479 | 37.56129 | 35953 ft | 469 kts | 195° |
| 2026-05-05 16:00 | 4.46174 | 37.54418 | 35948 ft | 469 kts | 195° |
| 2026-05-05 16:00 | 4.39872 | 37.52712 | 35943 ft | 469 kts | 195° |
| 2026-05-05 16:01 | 4.33573 | 37.51010 | 35935 ft | 470 kts | 195° |
| 2026-05-05 16:01 | 4.27252 | 37.49295 | 35929 ft | 470 kts | 195° |
| 2026-05-05 16:02 | 4.20932 | 37.47583 | 35912 ft | 470 kts | 194° |
| 2026-05-05 16:02 | 4.14611 | 37.45874 | 35914 ft | 471 kts | 194° |
| 2026-05-05 16:03 | 4.08288 | 37.44165 | 35915 ft | 471 kts | 194° |
| 2026-05-05 16:03 | 4.01954 | 37.42451 | 35901 ft | 471 kts | 194° |
| 2026-05-05 16:04 | 3.95633 | 37.40700 | 35896 ft | 472 kts | 195° |
| 2026-05-05 16:04 | 3.89336 | 37.38824 | 35887 ft | 472 kts | 196° |
| 2026-05-05 16:05 | 3.83054 | 37.36917 | 35892 ft | 472 kts | 196° |
| 2026-05-05 16:05 | 3.76750 | 37.35040 | 35886 ft | 472 kts | 196° |
| 2026-05-05 16:06 | 3.71507 | 37.33496 | 35889 ft | 472 kts | 196° |
| 2026-05-05 16:06 | 3.65169 | 37.31631 | 35885 ft | 472 kts | 196° |
| 2026-05-05 16:07 | 3.58880 | 37.29787 | 35884 ft | 472 kts | 196° |
| 2026-05-05 16:07 | 3.52571 | 37.27929 | 35874 ft | 472 kts | 196° |
| 2026-05-05 16:08 | 3.46274 | 37.26066 | 35848 ft | 471 kts | 196° |
| 2026-05-05 16:08 | 3.39981 | 37.24204 | 35853 ft | 471 kts | 196° |
| 2026-05-05 16:09 | 3.33683 | 37.22346 | 35856 ft | 472 kts | 196° |
| 2026-05-05 16:09 | 3.27385 | 37.20485 | 35857 ft | 472 kts | 196° |
| 2026-05-05 16:10 | 3.21082 | 37.18626 | 35862 ft | 472 kts | 196° |
| 2026-05-05 16:10 | 3.14784 | 37.16762 | 35862 ft | 472 kts | 196° |
| 2026-05-05 16:11 | 3.08485 | 37.14900 | 35863 ft | 472 kts | 196° |
| 2026-05-05 16:12 | 2.95922 | 37.11196 | 35878 ft | 472 kts | 195° |
| 2026-05-05 16:13 | 2.80183 | 37.06562 | 35876 ft | 471 kts | 195° |
| 2026-05-05 16:13 | 2.73893 | 37.04709 | 35890 ft | 471 kts | 195° |
| 2026-05-05 16:14 | 2.61321 | 37.01000 | 35892 ft | 471 kts | 195° |
| 2026-05-05 16:15 | 2.48741 | 36.97292 | 35894 ft | 471 kts | 195° |
| 2026-05-05 16:16 | 2.36164 | 36.93586 | 35910 ft | 471 kts | 195° |
| 2026-05-05 16:17 | 2.26732 | 36.90811 | 35917 ft | 471 kts | 195° |
| 2026-05-05 16:18 | 2.17295 | 36.88033 | 35925 ft | 471 kts | 195° |
| 2026-05-05 16:19 | 2.07867 | 36.85248 | 35931 ft | 471 kts | 195° |
| 2026-05-05 16:19 | 1.98445 | 36.82474 | 35934 ft | 470 kts | 195° |
| 2026-05-05 16:20 | 1.85897 | 36.78784 | 35935 ft | 470 kts | 195° |
| 2026-05-05 16:22 | 1.70235 | 36.74172 | 35937 ft | 469 kts | 195° |
| 2026-05-05 16:23 | 1.57735 | 36.70497 | 35949 ft | 468 kts | 195° |
| 2026-05-05 16:23 | 1.48376 | 36.67737 | 35952 ft | 467 kts | 195° |
| 2026-05-05 16:24 | 1.42138 | 36.65904 | 35963 ft | 467 kts | 195° |
| 2026-05-05 16:25 | 1.32797 | 36.63151 | 35973 ft | 466 kts | 195° |
| 2026-05-05 16:25 | 1.23460 | 36.60402 | 35982 ft | 466 kts | 195° |
| 2026-05-05 16:26 | 1.11014 | 36.56749 | 35995 ft | 466 kts | 195° |
| 2026-05-05 16:27 | 1.04795 | 36.54911 | 35999 ft | 466 kts | 195° |
| 2026-05-05 16:27 | 0.98576 | 36.53078 | 36003 ft | 466 kts | 195° |
| 2026-05-05 16:28 | 0.92350 | 36.51266 | 36011 ft | 466 kts | 195° |
| 2026-05-05 16:28 | 0.86124 | 36.49460 | 36017 ft | 466 kts | 195° |
| 2026-05-05 16:29 | 0.79901 | 36.47657 | 36023 ft | 466 kts | 195° |
| 2026-05-05 16:29 | 0.73679 | 36.45850 | 36026 ft | 466 kts | 195° |
| 2026-05-05 16:30 | 0.67457 | 36.44032 | 36033 ft | 465 kts | 195° |
| 2026-05-05 16:30 | 0.61244 | 36.42223 | 36034 ft | 465 kts | 195° |
| 2026-05-05 16:31 | 0.55028 | 36.40418 | 36034 ft | 465 kts | 195° |
| 2026-05-05 16:31 | 0.48816 | 36.38611 | 36042 ft | 465 kts | 195° |
| 2026-05-05 16:32 | 0.42608 | 36.36800 | 36046 ft | 465 kts | 195° |
| 2026-05-05 16:32 | 0.36395 | 36.34990 | 36050 ft | 465 kts | 195° |
| 2026-05-05 16:33 | 0.30188 | 36.33192 | 36064 ft | 465 kts | 195° |
| 2026-05-05 16:33 | 0.24018 | 36.31403 | 36064 ft | 464 kts | 195° |
| 2026-05-05 16:34 | 0.17777 | 36.29582 | 36083 ft | 464 kts | 195° |
| 2026-05-05 16:34 | 0.11578 | 36.27775 | 36088 ft | 464 kts | 195° |
| 2026-05-05 16:35 | 0.05379 | 36.25975 | 36095 ft | 464 kts | 194° |
| 2026-05-05 16:35 | -0.00819 | 36.24334 | 36088 ft | 462 kts | 185° |
| 2026-05-05 16:36 | -0.04023 | 36.24329 | 36092 ft | 460 kts | 171° |
| 2026-05-05 16:36 | -0.07176 | 36.24861 | 36099 ft | 460 kts | 169° |
| 2026-05-05 16:36 | -0.13475 | 36.25980 | 36090 ft | 461 kts | 169° |
| 2026-05-05 16:37 | -0.19809 | 36.27113 | 36113 ft | 462 kts | 169° |
| 2026-05-05 16:37 | -0.26145 | 36.28248 | 36131 ft | 462 kts | 169° |
| 2026-05-05 16:38 | -0.32482 | 36.29378 | 36142 ft | 463 kts | 169° |
| 2026-05-05 16:38 | -0.38803 | 36.30499 | 36152 ft | 463 kts | 169° |
| 2026-05-05 16:39 | -0.45154 | 36.31626 | 36160 ft | 463 kts | 169° |
| 2026-05-05 16:39 | -0.51495 | 36.32754 | 36162 ft | 463 kts | 169° |
| 2026-05-05 16:40 | -0.57849 | 36.33888 | 36162 ft | 464 kts | 169° |
| 2026-05-05 16:40 | -0.64200 | 36.35018 | 36170 ft | 464 kts | 169° |
| 2026-05-05 16:41 | -0.70563 | 36.36146 | 36170 ft | 465 kts | 170° |
| 2026-05-05 16:41 | -0.76929 | 36.37281 | 36172 ft | 465 kts | 169° |
| 2026-05-05 16:42 | -0.83294 | 36.38417 | 36177 ft | 465 kts | 169° |
| 2026-05-05 16:42 | -0.89667 | 36.39548 | 36175 ft | 465 kts | 169° |
| 2026-05-05 16:43 | -0.96037 | 36.40683 | 36180 ft | 465 kts | 169° |
| 2026-05-05 16:43 | -1.02412 | 36.41819 | 36171 ft | 465 kts | 169° |
| 2026-05-05 16:44 | -1.08794 | 36.42948 | 36174 ft | 466 kts | 169° |
| 2026-05-05 16:44 | -1.15170 | 36.44078 | 36169 ft | 466 kts | 169° |
| 2026-05-05 16:45 | -1.20473 | 36.45022 | 36161 ft | 466 kts | 169° |
| 2026-05-05 16:45 | -1.26858 | 36.46158 | 36157 ft | 466 kts | 169° |
| 2026-05-05 16:46 | -1.33248 | 36.47299 | 36145 ft | 466 kts | 169° |
| 2026-05-05 16:46 | -1.39630 | 36.48435 | 36132 ft | 466 kts | 169° |
| 2026-05-05 16:47 | -1.46012 | 36.49572 | 36128 ft | 466 kts | 169° |
| 2026-05-05 16:47 | -1.52399 | 36.50706 | 36115 ft | 466 kts | 169° |
| 2026-05-05 16:48 | -1.58779 | 36.51836 | 36109 ft | 466 kts | 169° |
| 2026-05-05 16:48 | -1.65155 | 36.52977 | 36103 ft | 466 kts | 169° |
| 2026-05-05 16:49 | -1.71530 | 36.54119 | 36102 ft | 465 kts | 169° |
| 2026-05-05 16:49 | -1.77910 | 36.55254 | 36083 ft | 466 kts | 169° |
| 2026-05-05 16:50 | -1.81102 | 36.55819 | 35850 ft | 465 kts | 169° |
| 2026-05-05 16:50 | -1.84286 | 36.56383 | 35612 ft | 465 kts | 169° |
| 2026-05-05 16:50 | -1.87477 | 36.56949 | 35379 ft | 466 kts | 169° |
| 2026-05-05 16:50 | -1.90669 | 36.57519 | 35144 ft | 466 kts | 169° |
| 2026-05-05 16:51 | -1.93864 | 36.58090 | 34727 ft | 468 kts | 169° |
| 2026-05-05 16:51 | -1.97095 | 36.58665 | 33815 ft | 475 kts | 169° |
| 2026-05-05 16:51 | -2.00353 | 36.59244 | 33247 ft | 473 kts | 169° |
| 2026-05-05 16:51 | -2.03578 | 36.59815 | 32688 ft | 470 kts | 169° |
| 2026-05-05 16:52 | -2.06784 | 36.60385 | 32133 ft | 467 kts | 169° |
| 2026-05-05 16:52 | -2.09975 | 36.60954 | 31567 ft | 464 kts | 169° |
| 2026-05-05 16:52 | -2.13145 | 36.61519 | 31005 ft | 462 kts | 169° |
| 2026-05-05 16:52 | -2.16300 | 36.62081 | 30437 ft | 459 kts | 169° |
| 2026-05-05 16:53 | -2.19436 | 36.62638 | 29832 ft | 457 kts | 169° |
| 2026-05-05 16:53 | -2.22554 | 36.63191 | 29266 ft | 452 kts | 169° |
| 2026-05-05 16:53 | -2.25636 | 36.63739 | 28719 ft | 448 kts | 169° |
| 2026-05-05 16:53 | -2.28687 | 36.64282 | 28173 ft | 443 kts | 169° |
| 2026-05-05 16:54 | -2.31708 | 36.64820 | 27643 ft | 439 kts | 169° |
| 2026-05-05 16:54 | -2.34703 | 36.65356 | 27124 ft | 435 kts | 169° |
| 2026-05-05 16:54 | -2.37662 | 36.65885 | 26619 ft | 431 kts | 169° |
| 2026-05-05 16:54 | -2.40601 | 36.66409 | 26130 ft | 427 kts | 169° |
| 2026-05-05 16:55 | -2.43509 | 36.66927 | 25656 ft | 423 kts | 169° |
| 2026-05-05 16:55 | -2.46411 | 36.67337 | 25192 ft | 420 kts | 176° |
| 2026-05-05 16:55 | -2.49292 | 36.67243 | 24735 ft | 418 kts | 186° |
| 2026-05-05 16:55 | -2.52178 | 36.66834 | 24264 ft | 415 kts | 187° |
| 2026-05-05 16:56 | -2.55017 | 36.66426 | 23806 ft | 413 kts | 187° |
| 2026-05-05 16:56 | -2.57862 | 36.66018 | 23293 ft | 411 kts | 187° |
| 2026-05-05 16:56 | -2.60683 | 36.65616 | 22834 ft | 407 kts | 187° |
| 2026-05-05 16:56 | -2.63476 | 36.65219 | 22378 ft | 403 kts | 187° |
| 2026-05-05 16:57 | -2.66239 | 36.64825 | 21932 ft | 399 kts | 187° |
| 2026-05-05 16:57 | -2.68979 | 36.64435 | 21487 ft | 396 kts | 187° |
| 2026-05-05 16:57 | -2.71689 | 36.64050 | 21047 ft | 392 kts | 187° |
| 2026-05-05 16:57 | -2.74376 | 36.63669 | 20606 ft | 388 kts | 187° |
| 2026-05-05 16:58 | -2.77038 | 36.63292 | 20182 ft | 384 kts | 187° |
| 2026-05-05 16:58 | -2.79673 | 36.62916 | 19754 ft | 381 kts | 187° |
| 2026-05-05 16:58 | -2.82289 | 36.62543 | 19332 ft | 378 kts | 187° |
| 2026-05-05 16:58 | -2.84882 | 36.62175 | 18914 ft | 375 kts | 187° |
| 2026-05-05 16:59 | -2.87455 | 36.61810 | 18501 ft | 372 kts | 187° |
| 2026-05-05 16:59 | -2.90014 | 36.61448 | 18045 ft | 370 kts | 187° |
| 2026-05-05 16:59 | -2.92552 | 36.61087 | 17629 ft | 367 kts | 187° |
| 2026-05-05 16:59 | -2.95073 | 36.60729 | 17221 ft | 365 kts | 187° |
| 2026-05-05 17:00 | -2.97581 | 36.60375 | 16819 ft | 363 kts | 187° |
| 2026-05-05 17:00 | -3.00075 | 36.60021 | 16416 ft | 361 kts | 187° |
| 2026-05-05 17:00 | -3.02555 | 36.59666 | 16026 ft | 359 kts | 187° |
| 2026-05-05 17:00 | -3.05023 | 36.59311 | 15642 ft | 357 kts | 188° |
| 2026-05-05 17:01 | -3.07475 | 36.58961 | 15240 ft | 354 kts | 187° |
| 2026-05-05 17:01 | -3.09905 | 36.58614 | 14878 ft | 351 kts | 187° |
| 2026-05-05 17:01 | -3.12311 | 36.58272 | 14502 ft | 348 kts | 187° |
| 2026-05-05 17:01 | -3.14701 | 36.57933 | 14129 ft | 346 kts | 187° |
| 2026-05-05 17:02 | -3.17080 | 36.57600 | 13723 ft | 344 kts | 186° |
| 2026-05-05 17:02 | -3.19454 | 36.57539 | 13285 ft | 341 kts | 173° |
| 2026-05-05 17:02 | -3.21750 | 36.58047 | 12840 ft | 337 kts | 159° |
| 2026-05-05 17:02 | -3.23837 | 36.59073 | 12422 ft | 334 kts | 145° |
| 2026-05-05 17:03 | -3.25741 | 36.60391 | 11984 ft | 332 kts | 144° |
| 2026-05-05 17:03 | -3.27637 | 36.61706 | 11571 ft | 331 kts | 144° |
| 2026-05-05 17:03 | -3.29298 | 36.62857 | 11188 ft | 323 kts | 144° |
| 2026-05-05 17:03 | -3.31111 | 36.64112 | 10763 ft | 311 kts | 144° |
| 2026-05-05 17:04 | -3.32859 | 36.65320 | 10356 ft | 300 kts | 144° |
| 2026-05-05 17:04 | -3.34512 | 36.66462 | 10118 ft | 284 kts | 144° |
| 2026-05-05 17:04 | -3.36123 | 36.67572 | 9868 ft | 274 kts | 144° |
| 2026-05-05 17:04 | -3.37682 | 36.68648 | 9660 ft | 269 kts | 144° |
| 2026-05-05 17:05 | -3.39205 | 36.69701 | 9508 ft | 262 kts | 144° |
| 2026-05-05 17:05 | -3.40686 | 36.70727 | 9357 ft | 256 kts | 144° |
| 2026-05-05 17:05 | -3.42115 | 36.71750 | 9198 ft | 249 kts | 138° |
| 2026-05-05 17:05 | -3.43232 | 36.72994 | 9078 ft | 240 kts | 123° |
| 2026-05-05 17:06 | -3.43964 | 36.74473 | 8939 ft | 238 kts | 108° |
| 2026-05-05 17:06 | -3.44259 | 36.76110 | 8555 ft | 241 kts | 92° |
| 2026-05-05 17:06 | -3.44235 | 36.77796 | 8230 ft | 242 kts | 88° |
| 2026-05-05 17:06 | -3.44151 | 36.79475 | 7928 ft | 241 kts | 88° |
| 2026-05-05 17:07 | -3.44074 | 36.81115 | 7615 ft | 230 kts | 89° |
| 2026-05-05 17:07 | -3.44006 | 36.82682 | 7313 ft | 220 kts | 89° |
| 2026-05-05 17:07 | -3.43942 | 36.84180 | 7042 ft | 211 kts | 89° |
| 2026-05-05 17:07 | -3.43880 | 36.85613 | 6731 ft | 199 kts | 89° |
| 2026-05-05 17:08 | -3.43823 | 36.86950 | 6509 ft | 187 kts | 89° |
| 2026-05-05 17:08 | -3.43768 | 36.88241 | 6266 ft | 184 kts | 89° |
| 2026-05-05 17:08 | -3.43713 | 36.89521 | 6021 ft | 183 kts | 89° |
| 2026-05-05 17:08 | -3.43658 | 36.90795 | 5796 ft | 183 kts | 89° |
| 2026-05-05 17:09 | -3.43604 | 36.92050 | 5558 ft | 182 kts | 89° |
| 2026-05-05 17:09 | -3.43550 | 36.93307 | 5324 ft | 175 kts | 89° |
| 2026-05-05 17:09 | -3.43499 | 36.94474 | 5110 ft | 161 kts | 89° |
| 2026-05-05 17:09 | -3.43453 | 36.95556 | 4928 ft | 151 kts | 89° |
| 2026-05-05 17:10 | -3.43408 | 36.96591 | 4735 ft | 147 kts | 89° |
| 2026-05-05 17:10 | -3.43365 | 36.97608 | 4544 ft | 145 kts | 89° |
| 2026-05-05 17:10 | -3.43322 | 36.98607 | 4362 ft | 146 kts | 88° |
| 2026-05-05 17:10 | -3.43278 | 36.99617 | 4182 ft | 145 kts | 88° |
| 2026-05-05 17:11 | -3.43235 | 37.00630 | 3996 ft | 146 kts | 87° |
| 2026-05-05 17:11 | -3.43191 | 37.01646 | 3808 ft | 146 kts | 86° |
| 2026-05-05 17:11 | -3.43147 | 37.02662 | 3611 ft | 146 kts | 86° |
| 2026-05-05 17:11 | -3.43103 | 37.03675 | 3410 ft | 146 kts | 86° |
| 2026-05-05 17:12 | -3.43060 | 37.04692 | 3198 ft | 146 kts | 86° |
| 2026-05-05 17:12 | -3.43021 | 37.05705 | 2996 ft | 145 kts | 85° |
| 2026-05-05 17:12 | -3.42993 | 37.06353 | 2947 ft | 131 kts | 86° |